createdAt,value
2018-10-01T00:00:28.430Z,7.60
2018-10-01T00:01:28.409Z,8.80
2018-10-01T00:02:28.390Z,8.90
2018-10-01T00:03:28.398Z,8.80
2018-10-01T00:04:28.349Z,8.60
2018-10-01T00:05:28.327Z,8.30
2018-10-01T00:06:28.307Z,8.60
2018-10-01T00:07:28.294Z,8.80
2018-10-01T00:08:28.267Z,8.60
2018-10-01T00:09:28.248Z,9.30
2018-10-01T00:10:28.235Z,8.00
2018-10-01T00:11:28.209Z,8.20
2018-10-01T00:12:28.187Z,9.40
2018-10-01T00:13:28.166Z,9.40
2018-10-01T00:14:28.146Z,9.00
2018-10-01T00:15:28.127Z,8.40
2018-10-01T00:16:28.107Z,9.50
2018-10-01T00:17:28.087Z,9.60
2018-10-01T00:18:28.066Z,8.60
2018-10-01T00:19:28.046Z,8.50
2018-10-01T00:20:28.028Z,8.40
2018-10-01T00:21:28.013Z,9.30
2018-10-01T00:22:27.986Z,8.90
2018-10-01T00:23:27.964Z,8.90
2018-10-01T00:24:27.942Z,9.50
2018-10-01T00:25:27.929Z,9.80
2018-10-01T00:26:27.903Z,9.30
2018-10-01T00:27:27.883Z,9.00
2018-10-01T00:28:27.873Z,8.90
2018-10-01T00:29:27.842Z,9.00
2018-10-01T00:30:27.821Z,9.00
2018-10-01T00:31:27.802Z,8.70
2018-10-01T00:32:27.781Z,8.70
2018-10-01T00:33:27.762Z,9.00
2018-10-01T00:34:27.740Z,9.00
2018-10-01T00:35:27.727Z,8.60
2018-10-01T00:36:27.701Z,8.70
2018-10-01T00:37:27.680Z,8.80
2018-10-01T00:38:27.732Z,8.20
2018-10-01T00:39:27.645Z,8.30
2018-10-01T00:40:27.621Z,8.00
2018-10-01T00:41:27.599Z,9.60
2018-10-01T00:42:27.578Z,8.80
2018-10-01T00:43:27.558Z,8.40
2018-10-01T00:44:27.539Z,8.90
2018-10-01T00:45:27.517Z,8.50
2018-10-01T00:46:27.504Z,8.90
2018-10-01T00:47:27.477Z,9.00
2018-10-01T00:48:27.460Z,8.50
2018-10-01T00:49:27.439Z,8.40
2018-10-01T00:50:27.417Z,8.40
2018-10-01T00:51:27.397Z,8.30
2018-10-01T00:52:27.379Z,8.80
2018-10-01T00:53:27.355Z,8.10
2018-10-01T00:54:27.340Z,8.90
2018-10-01T00:55:27.314Z,9.20
2018-10-01T00:56:27.294Z,8.80
2018-10-01T00:57:27.278Z,9.20
2018-10-01T00:58:27.253Z,8.80
2018-10-01T00:59:27.233Z,8.40
2018-10-01T01:00:27.214Z,8.90
2018-10-01T01:01:27.197Z,7.90
2018-10-01T01:02:27.176Z,9.10
2018-10-01T01:03:27.162Z,8.60
2018-10-01T01:04:27.136Z,8.80
2018-10-01T01:05:27.113Z,8.80
2018-10-01T01:06:27.091Z,8.60
2018-10-01T01:07:27.076Z,8.10
2018-10-01T01:08:27.051Z,8.30
2018-10-01T01:09:27.032Z,7.80
2018-10-01T01:10:27.009Z,8.20
2018-10-01T01:11:26.998Z,8.20
2018-10-01T01:12:26.969Z,8.10
2018-10-01T01:13:26.950Z,9.00
2018-10-01T01:14:26.935Z,7.70
2018-10-01T01:15:26.909Z,8.00
2018-10-01T01:16:26.890Z,7.80
2018-10-01T01:17:26.869Z,7.80
2018-10-01T01:18:26.853Z,7.80
2018-10-01T01:19:26.834Z,8.10
2018-10-01T01:20:26.810Z,8.30
2018-10-01T01:21:26.800Z,7.60
2018-10-01T01:22:26.768Z,7.70
2018-10-01T01:23:26.751Z,8.20
2018-10-01T01:24:26.730Z,7.60
2018-10-01T01:25:26.711Z,7.90
2018-10-01T01:26:26.688Z,7.50
2018-10-01T01:27:26.671Z,8.00
2018-10-01T01:28:26.648Z,7.50
2018-10-01T01:29:26.627Z,8.40
2018-10-01T01:30:26.605Z,7.80
2018-10-01T01:31:26.588Z,7.80
2018-10-01T01:32:26.568Z,7.90
2018-10-01T01:33:26.545Z,8.20
2018-10-01T01:34:26.525Z,7.80
2018-10-01T01:35:26.505Z,8.30
2018-10-01T01:36:26.486Z,7.70
2018-10-01T01:37:26.464Z,8.70
2018-10-01T01:38:26.443Z,8.10
2018-10-01T01:39:26.423Z,8.80
2018-10-01T01:40:26.411Z,8.90
2018-10-01T01:41:26.385Z,8.50
2018-10-01T01:42:26.363Z,9.00
2018-10-01T01:43:26.344Z,8.40
2018-10-01T01:44:26.325Z,8.40
2018-10-01T01:45:26.305Z,8.10
2018-10-01T01:46:26.283Z,9.10
2018-10-01T01:47:26.271Z,8.60
2018-10-01T01:48:26.242Z,8.90
2018-10-01T01:49:26.223Z,8.70
2018-10-01T01:50:26.200Z,9.30
2018-10-01T01:51:26.183Z,9.10
2018-10-01T01:52:26.162Z,8.60
2018-10-01T01:53:26.147Z,8.40
2018-10-01T01:54:26.124Z,8.70
2018-10-01T01:55:26.100Z,8.90
2018-10-01T01:56:26.080Z,8.80
2018-10-01T01:57:26.062Z,8.50
2018-10-01T01:58:26.039Z,8.90
2018-10-01T01:59:26.019Z,8.30
2018-10-01T02:00:25.999Z,8.90
2018-10-01T02:01:25.979Z,9.30
2018-10-01T02:02:25.957Z,8.60
2018-10-01T02:03:25.938Z,9.60
2018-10-01T02:04:25.919Z,9.20
2018-10-01T02:05:25.900Z,9.50
2018-10-01T02:06:25.876Z,9.30
2018-10-01T02:07:25.857Z,10.00
2018-10-01T02:08:25.837Z,10.20
2018-10-01T02:09:25.820Z,9.40
2018-10-01T02:10:25.802Z,9.40
2018-10-01T02:11:25.779Z,9.50
2018-10-01T02:12:25.756Z,9.70
2018-10-01T02:13:25.735Z,10.10
2018-10-01T02:14:25.713Z,10.50
2018-10-01T02:15:25.696Z,9.80
2018-10-01T02:16:25.675Z,10.20
2018-10-01T02:17:25.659Z,11.00
2018-10-01T02:18:25.633Z,10.80
2018-10-01T02:19:25.611Z,10.90
2018-10-01T02:20:25.596Z,11.10
2018-10-01T02:21:25.575Z,10.60
2018-10-01T02:22:25.563Z,10.60
2018-10-01T02:23:25.531Z,10.50
2018-10-01T02:24:25.513Z,10.90
2018-10-01T02:25:25.489Z,10.10
2018-10-01T02:26:25.468Z,10.40
2018-10-01T02:27:25.449Z,10.20
2018-10-01T02:28:25.429Z,9.80
2018-10-01T02:29:25.405Z,9.80
2018-10-01T02:30:25.391Z,9.80
2018-10-01T02:31:25.367Z,9.80
2018-10-01T02:32:25.356Z,9.70
2018-10-01T02:33:25.326Z,9.00
2018-10-01T02:34:25.330Z,9.10
2018-10-01T02:35:25.284Z,8.70
2018-10-01T02:36:25.264Z,9.00
2018-10-01T02:37:25.243Z,7.50
2018-10-01T02:38:25.223Z,8.20
2018-10-01T02:39:25.207Z,7.50
2018-10-01T02:40:25.183Z,7.90
2018-10-01T02:41:25.160Z,7.70
2018-10-01T02:42:25.140Z,7.60
2018-10-01T02:43:25.119Z,7.80
2018-10-01T02:44:25.099Z,6.80
2018-10-01T02:45:25.079Z,7.20
2018-10-01T02:46:25.068Z,7.00
2018-10-01T02:47:25.040Z,6.70
2018-10-01T02:48:25.017Z,7.40
2018-10-01T02:49:24.998Z,7.20
2018-10-01T02:50:24.977Z,7.30
2018-10-01T02:51:24.953Z,6.90
2018-10-01T02:52:24.936Z,6.70
2018-10-01T02:53:24.913Z,7.50
2018-10-01T02:54:24.893Z,7.00
2018-10-01T02:55:24.870Z,5.90
2018-10-01T02:56:24.852Z,6.40
2018-10-01T02:57:24.831Z,5.80
2018-10-01T02:58:24.807Z,5.70
2018-10-01T02:59:24.788Z,6.00
2018-10-01T03:00:24.767Z,6.10
2018-10-01T03:01:24.746Z,6.50
2018-10-01T03:02:24.727Z,5.80
2018-10-01T03:03:24.704Z,6.00
2018-10-01T03:04:24.694Z,6.60
2018-10-01T03:05:24.663Z,6.90
2018-10-01T03:06:24.644Z,6.00
2018-10-01T03:07:24.624Z,6.10
2018-10-01T03:08:24.603Z,6.20
2018-10-01T03:09:24.586Z,5.10
2018-10-01T03:10:24.561Z,5.40
2018-10-01T03:11:24.546Z,5.80
2018-10-01T03:12:24.682Z,6.40
2018-10-01T03:13:24.498Z,5.60
2018-10-01T03:14:24.479Z,5.90
2018-10-01T03:15:24.457Z,5.70
2018-10-01T03:16:24.438Z,5.10
2018-10-01T03:17:24.417Z,6.10
2018-10-01T03:18:24.395Z,6.20
2018-10-01T03:19:24.377Z,6.10
2018-10-01T03:20:24.378Z,5.70
2018-10-01T03:21:24.373Z,6.00
2018-10-01T03:22:24.311Z,5.90
2018-10-01T03:23:24.294Z,6.30
2018-10-01T03:24:24.271Z,5.60
2018-10-01T03:25:24.265Z,5.50
2018-10-01T03:26:24.230Z,5.60
2018-10-01T03:27:24.208Z,6.70
2018-10-01T03:28:24.187Z,5.80
2018-10-01T03:29:24.167Z,6.60
2018-10-01T03:30:24.148Z,6.20
2018-10-01T03:31:24.132Z,6.70
2018-10-01T03:32:24.109Z,6.40
2018-10-01T03:33:24.085Z,6.50
2018-10-01T03:34:24.063Z,6.60
2018-10-01T03:35:24.045Z,6.40
2018-10-01T03:36:24.021Z,5.90
2018-10-01T03:37:24.002Z,5.60
2018-10-01T03:38:23.988Z,6.10
2018-10-01T03:39:23.960Z,7.10
2018-10-01T03:40:23.940Z,6.80
2018-10-01T03:41:23.920Z,6.20
2018-10-01T03:42:23.898Z,6.50
2018-10-01T03:43:23.887Z,6.30
2018-10-01T03:44:23.856Z,6.20
2018-10-01T03:45:23.835Z,6.70
2018-10-01T03:46:23.814Z,6.40
2018-10-01T03:47:23.793Z,7.50
2018-10-01T03:48:23.779Z,6.20
2018-10-01T03:49:23.752Z,6.80
2018-10-01T03:50:23.732Z,6.90
2018-10-01T03:51:23.711Z,7.10
2018-10-01T03:52:23.689Z,6.70
2018-10-01T03:53:23.670Z,6.70
2018-10-01T03:54:23.647Z,6.60
2018-10-01T03:55:23.627Z,6.30
2018-10-01T03:56:23.608Z,6.60
2018-10-01T03:57:23.587Z,6.40
2018-10-01T03:58:23.572Z,6.90
2018-10-01T03:59:23.546Z,7.10
2018-10-01T04:00:23.525Z,6.50
2018-10-01T04:01:23.504Z,6.80
2018-10-01T04:02:23.487Z,5.90
2018-10-01T04:03:23.462Z,6.50
2018-10-01T04:04:23.440Z,6.40
2018-10-01T04:05:23.420Z,6.30
2018-10-01T04:06:23.400Z,7.40
2018-10-01T04:07:23.381Z,7.00
2018-10-01T04:08:23.359Z,6.30
2018-10-01T04:09:23.336Z,7.30
2018-10-01T04:10:23.324Z,6.90
2018-10-01T04:11:23.295Z,7.30
2018-10-01T04:12:23.273Z,6.80
2018-10-01T04:13:23.252Z,7.10
2018-10-01T04:14:23.237Z,7.30
2018-10-01T04:15:23.215Z,7.00
2018-10-01T04:16:23.192Z,6.80
2018-10-01T04:17:23.174Z,6.80
2018-10-01T04:18:23.149Z,6.70
2018-10-01T04:19:23.129Z,7.50
2018-10-01T04:20:23.109Z,7.30
2018-10-01T04:21:23.089Z,7.30
2018-10-01T04:22:23.068Z,7.20
2018-10-01T04:23:23.044Z,7.20
2018-10-01T04:24:23.028Z,7.30
2018-10-01T04:25:23.005Z,7.50
2018-10-01T04:26:22.982Z,6.30
2018-10-01T04:27:22.962Z,6.60
2018-10-01T04:28:22.992Z,6.60
2018-10-01T04:29:22.925Z,6.80
2018-10-01T04:30:22.900Z,6.70
2018-10-01T04:31:22.878Z,6.60
2018-10-01T04:32:22.858Z,7.10
2018-10-01T04:33:22.838Z,7.30
2018-10-01T04:34:22.818Z,7.20
2018-10-01T04:35:22.801Z,7.80
2018-10-01T04:36:22.775Z,7.00
2018-10-01T04:37:22.753Z,6.60
2018-10-01T04:38:22.740Z,6.70
2018-10-01T04:39:22.711Z,6.60
2018-10-01T04:40:22.693Z,6.40
2018-10-01T04:41:22.669Z,6.50
2018-10-01T04:42:22.649Z,7.00
2018-10-01T04:43:22.632Z,6.50
2018-10-01T04:44:22.616Z,6.50
2018-10-01T04:45:22.588Z,6.60
2018-10-01T04:46:22.565Z,6.10
2018-10-01T04:47:22.548Z,6.50
2018-10-01T04:48:22.530Z,6.30
2018-10-01T04:49:22.512Z,6.40
2018-10-01T04:50:22.480Z,5.60
2018-10-01T04:51:22.460Z,7.00
2018-10-01T04:52:22.441Z,5.90
2018-10-01T04:53:22.430Z,6.60
2018-10-01T04:54:22.397Z,6.80
2018-10-01T04:55:22.378Z,6.70
2018-10-01T04:56:22.378Z,5.70
2018-10-01T04:57:22.335Z,7.20
2018-10-01T04:58:22.484Z,6.00
2018-10-01T04:59:22.292Z,5.70
2018-10-01T05:00:22.276Z,5.70
2018-10-01T05:01:22.253Z,5.70
2018-10-01T05:02:22.239Z,6.10
2018-10-01T05:03:22.211Z,5.60
2018-10-01T05:04:22.191Z,5.70
2018-10-01T05:05:22.170Z,6.20
2018-10-01T05:06:22.150Z,5.50
2018-10-01T05:07:22.132Z,5.20
2018-10-01T05:08:22.110Z,5.80
2018-10-01T05:09:22.092Z,5.60
2018-10-01T05:10:22.071Z,5.20
2018-10-01T05:11:22.044Z,6.30
2018-10-01T05:12:22.024Z,4.90
2018-10-01T05:13:22.003Z,5.20
2018-10-01T05:14:21.994Z,5.70
2018-10-01T05:15:21.962Z,5.10
2018-10-01T05:16:21.940Z,5.50
2018-10-01T05:17:21.919Z,5.30
2018-10-01T05:18:21.951Z,5.50
2018-10-01T05:19:21.884Z,5.40
2018-10-01T05:20:21.854Z,5.60
2018-10-01T05:21:21.835Z,5.10
2018-10-01T05:22:21.843Z,4.80
2018-10-01T05:23:21.791Z,5.10
2018-10-01T05:24:21.770Z,5.20
2018-10-01T05:25:21.754Z,4.70
2018-10-01T05:26:21.729Z,5.30
2018-10-01T05:27:21.708Z,4.60
2018-10-01T05:28:21.687Z,4.60
2018-10-01T05:29:21.671Z,4.80
2018-10-01T05:30:21.643Z,4.40
2018-10-01T05:31:21.636Z,4.60
2018-10-01T05:32:21.605Z,5.70
2018-10-01T05:33:21.584Z,5.10
2018-10-01T05:34:21.562Z,4.70
2018-10-01T05:35:21.540Z,5.10
2018-10-01T05:36:21.525Z,4.90
2018-10-01T05:37:21.500Z,5.20
2018-10-01T05:38:21.480Z,4.80
2018-10-01T05:39:21.461Z,4.60
2018-10-01T05:40:21.436Z,5.30
2018-10-01T05:41:21.417Z,5.30
2018-10-01T05:42:21.411Z,5.20
2018-10-01T05:43:21.373Z,4.50
2018-10-01T05:44:21.365Z,4.70
2018-10-01T05:45:21.330Z,4.70
2018-10-01T05:46:21.315Z,4.70
2018-10-01T05:47:21.288Z,5.50
2018-10-01T05:48:21.269Z,4.90
2018-10-01T05:49:21.253Z,5.10
2018-10-01T05:50:21.224Z,5.00
2018-10-01T05:51:21.204Z,4.70
2018-10-01T05:52:21.269Z,5.30
2018-10-01T05:53:21.162Z,5.10
2018-10-01T05:54:21.139Z,4.80
2018-10-01T05:55:21.120Z,5.60
2018-10-01T05:56:21.100Z,4.10
2018-10-01T05:57:21.079Z,4.40
2018-10-01T05:58:21.058Z,4.00
2018-10-01T05:59:21.035Z,4.80
2018-10-01T06:00:21.016Z,4.50
2018-10-01T06:01:20.992Z,4.50
2018-10-01T06:02:20.974Z,4.00
2018-10-01T06:03:20.954Z,4.40
2018-10-01T06:04:20.930Z,4.30
2018-10-01T06:05:20.910Z,4.50
2018-10-01T06:06:20.889Z,4.00
2018-10-01T06:07:20.871Z,4.90
2018-10-01T06:08:20.848Z,4.20
2018-10-01T06:09:20.832Z,3.90
2018-10-01T06:10:20.805Z,4.70
2018-10-01T06:11:20.783Z,4.70
2018-10-01T06:12:20.763Z,4.30
2018-10-01T06:13:20.741Z,3.90
2018-10-01T06:14:20.720Z,3.80
2018-10-01T06:15:20.702Z,4.60
2018-10-01T06:16:20.686Z,4.00
2018-10-01T06:17:20.660Z,3.60
2018-10-01T06:18:20.634Z,4.20
2018-10-01T06:19:20.614Z,3.50
2018-10-01T06:20:20.605Z,3.90
2018-10-01T06:21:20.576Z,3.70
2018-10-01T06:22:20.550Z,3.60
2018-10-01T06:23:20.530Z,4.00
2018-10-01T06:24:20.520Z,4.40
2018-10-01T06:25:20.565Z,3.40
2018-10-01T06:26:20.464Z,3.80
2018-10-01T06:27:20.453Z,3.20
2018-10-01T06:28:20.432Z,3.50
2018-10-01T06:29:20.405Z,3.50
2018-10-01T06:30:20.387Z,3.50
2018-10-01T06:31:20.360Z,4.00
2018-10-01T06:32:20.338Z,3.40
2018-10-01T06:33:20.319Z,3.60
2018-10-01T06:34:20.296Z,3.40
2018-10-01T06:35:20.275Z,3.30
2018-10-01T06:36:20.310Z,3.60
2018-10-01T06:37:20.233Z,3.20
2018-10-01T06:38:20.213Z,3.20
2018-10-01T06:39:20.199Z,3.60
2018-10-01T06:40:20.192Z,3.70
2018-10-01T06:41:20.151Z,2.90
2018-10-01T06:42:20.135Z,3.00
2018-10-01T06:43:20.106Z,3.40
2018-10-01T06:44:20.084Z,3.10
2018-10-01T06:45:20.063Z,3.30
2018-10-01T06:46:20.041Z,3.10
2018-10-01T06:47:20.022Z,2.70
2018-10-01T06:48:20.000Z,3.30
2018-10-01T06:49:19.979Z,3.30
2018-10-01T06:50:19.957Z,3.00
2018-10-01T06:51:19.956Z,3.20
2018-10-01T06:52:19.914Z,3.40
2018-10-01T06:53:19.893Z,2.90
2018-10-01T06:54:19.873Z,2.90
2018-10-01T06:55:19.854Z,3.20
2018-10-01T06:56:19.838Z,2.40
2018-10-01T06:57:19.817Z,2.70
2018-10-01T06:58:19.788Z,2.70
2018-10-01T06:59:19.768Z,3.00
2018-10-01T07:00:19.751Z,2.70
2018-10-01T07:01:19.770Z,2.60
2018-10-01T07:02:19.711Z,2.30
2018-10-01T07:03:19.688Z,2.10
2018-10-01T07:04:19.663Z,3.10
2018-10-01T07:05:19.658Z,3.00
2018-10-01T07:06:19.623Z,3.20
2018-10-01T07:07:19.601Z,2.10
2018-10-01T07:08:19.580Z,2.60
2018-10-01T07:09:19.559Z,2.70
2018-10-01T07:10:19.535Z,2.30
2018-10-01T07:11:19.528Z,2.90
2018-10-01T07:12:19.498Z,3.20
2018-10-01T07:13:19.470Z,2.50
2018-10-01T07:14:19.452Z,2.60
2018-10-01T07:15:19.430Z,2.60
2018-10-01T07:16:19.463Z,2.60
2018-10-01T07:17:19.542Z,2.50
2018-10-01T07:18:19.367Z,2.80
2018-10-01T07:19:19.346Z,2.40
2018-10-01T07:20:19.326Z,3.10
2018-10-01T07:21:19.311Z,2.40
2018-10-01T07:22:19.288Z,2.80
2018-10-01T07:23:19.459Z,2.60
2018-10-01T07:24:19.243Z,2.30
2018-10-01T07:25:19.219Z,2.50
2018-10-01T07:26:19.196Z,2.80
2018-10-01T07:27:19.176Z,2.30
2018-10-01T07:28:19.154Z,3.10
2018-10-01T07:29:19.150Z,2.20
2018-10-01T07:30:19.113Z,2.50
2018-10-01T07:31:19.093Z,2.60
2018-10-01T07:32:19.069Z,2.00
2018-10-01T07:33:19.057Z,2.30
2018-10-01T07:34:19.029Z,2.50
2018-10-01T07:35:19.065Z,2.60
2018-10-01T07:36:18.986Z,2.30
2018-10-01T07:37:18.965Z,2.20
2018-10-01T07:38:18.948Z,2.10
2018-10-01T07:39:18.924Z,2.40
2018-10-01T07:40:18.907Z,2.40
2018-10-01T07:41:18.894Z,2.50
2018-10-01T07:42:18.861Z,1.90
2018-10-01T07:43:18.840Z,2.00
2018-10-01T07:44:18.819Z,2.10
2018-10-01T07:45:18.996Z,2.50
2018-10-01T07:46:18.853Z,2.20
2018-10-01T07:47:18.759Z,2.30
2018-10-01T07:48:18.754Z,2.30
2018-10-01T07:49:18.717Z,2.30
2018-10-01T07:50:18.696Z,1.80
2018-10-01T07:51:18.679Z,2.00
2018-10-01T07:52:18.678Z,2.60
2018-10-01T07:53:18.730Z,2.10
2018-10-01T07:54:18.611Z,2.00
2018-10-01T07:55:18.596Z,2.00
2018-10-01T07:56:18.571Z,2.10
2018-10-01T07:57:18.591Z,1.80
2018-10-01T07:58:18.535Z,2.10
2018-10-01T07:59:18.508Z,1.90
2018-10-01T08:00:18.549Z,2.30
2018-10-01T08:01:18.467Z,2.50
2018-10-01T08:02:18.460Z,2.10
2018-10-01T08:03:18.434Z,1.50
2018-10-01T08:04:18.407Z,1.90
2018-10-01T08:05:18.383Z,2.00
2018-10-01T08:06:18.384Z,1.80
2018-10-01T08:07:18.342Z,2.10
2018-10-01T08:08:18.419Z,1.90
2018-10-01T08:09:18.374Z,2.00
2018-10-01T08:10:18.288Z,1.90
2018-10-01T08:11:18.262Z,1.90
2018-10-01T08:12:18.243Z,1.80
2018-10-01T08:13:18.221Z,2.00
2018-10-01T08:14:18.207Z,1.80
2018-10-01T08:15:18.184Z,1.80
2018-10-01T08:16:18.157Z,2.40
2018-10-01T08:17:18.140Z,1.50
2018-10-01T08:18:18.118Z,2.20
2018-10-01T08:19:18.095Z,2.10
2018-10-01T08:20:18.082Z,1.60
2018-10-01T08:21:18.063Z,1.50
2018-10-01T08:22:18.034Z,1.90
2018-10-01T08:23:18.012Z,1.80
2018-10-01T08:24:17.994Z,1.70
2018-10-01T08:25:17.973Z,2.00
2018-10-01T08:26:17.991Z,1.80
2018-10-01T08:27:17.933Z,1.80
2018-10-01T08:28:17.911Z,2.00
2018-10-01T08:29:17.921Z,2.00
2018-10-01T08:30:17.869Z,1.80
2018-10-01T08:31:17.851Z,1.60
2018-10-01T08:32:17.908Z,2.10
2018-10-01T08:33:17.808Z,1.70
2018-10-01T08:34:17.791Z,1.30
2018-10-01T08:35:17.773Z,1.50
2018-10-01T08:36:17.746Z,1.90
2018-10-01T08:37:17.725Z,1.60
2018-10-01T08:38:17.789Z,1.60
2018-10-01T08:39:17.692Z,2.00
2018-10-01T08:40:17.664Z,1.60
2018-10-01T08:41:17.656Z,2.00
2018-10-01T08:42:17.627Z,1.60
2018-10-01T08:43:17.601Z,2.00
2018-10-01T08:44:17.599Z,2.00
2018-10-01T08:45:17.559Z,2.00
2018-10-01T08:46:17.543Z,1.40
2018-10-01T08:47:17.647Z,2.10
2018-10-01T08:48:17.498Z,2.00
2018-10-01T08:49:17.479Z,1.90
2018-10-01T08:50:17.472Z,2.20
2018-10-01T08:51:17.438Z,2.00
2018-10-01T08:52:17.417Z,1.90
2018-10-01T08:53:17.409Z,2.00
2018-10-01T08:54:17.387Z,2.00
2018-10-01T08:55:17.356Z,1.60
2018-10-01T08:56:17.386Z,1.60
2018-10-01T08:57:17.315Z,1.50
2018-10-01T08:58:17.304Z,1.90
2018-10-01T08:59:17.280Z,1.40
2018-10-01T09:00:17.254Z,1.80
2018-10-01T09:01:17.284Z,1.40
2018-10-01T09:02:17.355Z,1.50
2018-10-01T09:03:17.198Z,1.60
2018-10-01T09:04:17.174Z,1.20
2018-10-01T09:05:17.219Z,1.60
2018-10-01T09:06:17.141Z,1.50
2018-10-01T09:07:17.112Z,1.20
2018-10-01T09:08:17.098Z,1.70
2018-10-01T09:09:17.072Z,1.70
2018-10-01T09:10:17.056Z,1.50
2018-10-01T09:11:17.087Z,1.40
2018-10-01T09:12:17.011Z,1.70
2018-10-01T09:13:16.989Z,1.70
2018-10-01T09:14:17.074Z,1.50
2018-10-01T09:15:16.949Z,1.60
2018-10-01T09:16:16.936Z,1.80
2018-10-01T09:17:16.940Z,1.50
2018-10-01T09:18:16.885Z,1.50
2018-10-01T09:19:16.870Z,1.30
2018-10-01T09:20:16.910Z,1.50
2018-10-01T09:21:16.860Z,1.10
2018-10-01T09:22:16.808Z,1.50
2018-10-01T09:23:16.792Z,1.60
2018-10-01T09:24:16.766Z,1.50
2018-10-01T09:25:16.755Z,1.50
2018-10-01T09:26:16.798Z,1.50
2018-10-01T09:27:16.706Z,1.80
2018-10-01T09:28:16.685Z,1.40
2018-10-01T09:29:16.796Z,1.30
2018-10-01T09:30:16.647Z,1.30
2018-10-01T09:31:16.626Z,1.60
2018-10-01T09:32:16.773Z,0.90
2018-10-01T09:33:16.584Z,1.40
2018-10-01T09:34:16.563Z,1.20
2018-10-01T09:35:16.567Z,1.40
2018-10-01T09:36:16.525Z,1.40
2018-10-01T09:37:16.506Z,1.20
2018-10-01T09:38:16.541Z,1.60
2018-10-01T09:39:16.464Z,1.50
2018-10-01T09:40:16.476Z,1.30
2018-10-01T09:41:16.436Z,1.70
2018-10-01T09:42:16.515Z,1.50
2018-10-01T09:43:16.385Z,1.30
2018-10-01T09:44:16.451Z,1.00
2018-10-01T09:45:16.346Z,1.70
2018-10-01T09:46:16.342Z,1.50
2018-10-01T09:47:16.305Z,1.70
2018-10-01T09:48:16.288Z,1.30
2018-10-01T09:49:16.269Z,1.10
2018-10-01T09:50:16.264Z,1.30
2018-10-01T09:51:16.225Z,1.30
2018-10-01T09:52:16.256Z,1.40
2018-10-01T09:53:16.189Z,1.20
2018-10-01T09:54:16.168Z,1.20
2018-10-01T09:55:16.152Z,1.60
2018-10-01T09:56:16.164Z,1.30
2018-10-01T09:57:16.110Z,1.20
2018-10-01T09:58:16.270Z,1.10
2018-10-01T09:59:16.068Z,1.40
2018-10-01T10:00:16.048Z,1.60
2018-10-01T10:01:16.026Z,1.50
2018-10-01T10:02:16.123Z,1.40
2018-10-01T10:03:15.986Z,1.60
2018-10-01T10:04:15.975Z,1.40
2018-10-01T10:05:15.945Z,1.30
2018-10-01T10:06:15.928Z,1.50
2018-10-01T10:07:15.908Z,1.10
2018-10-01T10:08:15.987Z,1.40
2018-10-01T10:09:15.866Z,1.70
2018-10-01T10:10:15.973Z,1.10
2018-10-01T10:11:15.840Z,1.10
2018-10-01T10:12:15.812Z,1.30
2018-10-01T10:13:15.786Z,1.30
2018-10-01T10:14:15.857Z,1.20
2018-10-01T10:15:15.755Z,1.10
2018-10-01T10:16:15.944Z,1.40
2018-10-01T10:17:15.712Z,1.40
2018-10-01T10:18:15.699Z,1.60
2018-10-01T10:19:15.667Z,1.30
2018-10-01T10:20:15.764Z,1.20
2018-10-01T10:21:15.627Z,1.30
2018-10-01T10:22:15.641Z,1.10
2018-10-01T10:23:15.585Z,1.50
2018-10-01T10:24:15.566Z,1.50
2018-10-01T10:25:15.545Z,1.30
2018-10-01T10:26:15.600Z,1.60
2018-10-01T10:27:15.533Z,1.50
2018-10-01T10:28:15.500Z,1.20
2018-10-01T10:29:15.465Z,1.40
2018-10-01T10:30:15.446Z,1.30
2018-10-01T10:31:15.427Z,1.10
2018-10-01T10:32:15.484Z,1.20
2018-10-01T10:33:15.387Z,1.00
2018-10-01T10:34:15.407Z,1.40
2018-10-01T10:35:15.351Z,1.20
2018-10-01T10:36:15.329Z,1.30
2018-10-01T10:37:15.306Z,1.00
2018-10-01T10:38:15.338Z,1.20
2018-10-01T10:39:15.268Z,1.40
2018-10-01T10:40:15.250Z,1.00
2018-10-01T10:41:15.233Z,0.80
2018-10-01T10:42:15.213Z,1.10
2018-10-01T10:43:15.189Z,0.90
2018-10-01T10:44:15.283Z,0.90
2018-10-01T10:45:15.152Z,1.30
2018-10-01T10:46:15.128Z,1.10
2018-10-01T10:47:15.108Z,1.10
2018-10-01T10:48:15.247Z,1.00
2018-10-01T10:49:15.071Z,1.40
2018-10-01T10:50:15.099Z,1.30
2018-10-01T10:51:15.032Z,1.10
2018-10-01T10:52:15.012Z,0.80
2018-10-01T10:53:15.013Z,1.10
2018-10-01T10:54:14.970Z,1.10
2018-10-01T10:55:14.954Z,0.90
2018-10-01T10:56:15.090Z,1.50
2018-10-01T10:57:14.914Z,1.10
2018-10-01T10:58:14.894Z,0.90
2018-10-01T10:59:14.870Z,1.10
2018-10-01T11:00:14.851Z,0.70
2018-10-01T11:01:14.832Z,1.10
2018-10-01T11:02:14.977Z,0.90
2018-10-01T11:03:14.794Z,1.20
2018-10-01T11:04:14.776Z,1.00
2018-10-01T11:05:14.760Z,1.00
2018-10-01T11:06:14.733Z,1.00
2018-10-01T11:07:14.810Z,1.20
2018-10-01T11:08:14.777Z,1.20
2018-10-01T11:09:14.673Z,1.10
2018-10-01T11:10:14.657Z,0.90
2018-10-01T11:11:14.635Z,1.00
2018-10-01T11:12:14.610Z,0.90
2018-10-01T11:13:14.598Z,1.20
2018-10-01T11:14:14.643Z,0.80
2018-10-01T11:15:14.741Z,0.80
2018-10-01T11:16:14.528Z,0.60
2018-10-01T11:17:14.571Z,0.90
2018-10-01T11:18:14.566Z,0.80
2018-10-01T11:19:14.626Z,0.80
2018-10-01T11:20:14.517Z,0.70
2018-10-01T11:21:14.481Z,0.70
2018-10-01T11:22:14.444Z,0.60
2018-10-01T11:23:14.440Z,0.70
2018-10-01T11:24:14.396Z,0.70
2018-10-01T11:25:14.419Z,0.70
2018-10-01T11:26:14.327Z,0.60
2018-10-01T11:27:14.329Z,0.80
2018-10-01T11:28:14.307Z,0.70
2018-10-01T11:29:14.270Z,0.80
2018-10-01T11:30:14.254Z,0.90
2018-10-01T11:31:14.229Z,1.00
2018-10-01T11:32:14.206Z,0.80
2018-10-01T11:33:14.411Z,0.90
2018-10-01T11:34:14.227Z,1.20
2018-10-01T11:35:14.293Z,0.90
2018-10-01T11:36:14.123Z,0.80
2018-10-01T11:37:14.104Z,0.90
2018-10-01T11:38:14.092Z,1.00
2018-10-01T11:39:14.225Z,1.20
2018-10-01T11:40:14.045Z,1.10
2018-10-01T11:41:14.023Z,1.00
2018-10-01T11:42:14.001Z,1.10
2018-10-01T11:43:13.982Z,1.00
2018-10-01T11:44:13.963Z,1.10
2018-10-01T11:45:13.989Z,1.40
2018-10-01T11:46:13.921Z,1.00
2018-10-01T11:47:13.902Z,1.00
2018-10-01T11:48:13.888Z,1.20
2018-10-01T11:49:13.859Z,0.90
2018-10-01T11:50:13.871Z,1.20
2018-10-01T11:51:13.978Z,1.40
2018-10-01T11:52:13.804Z,1.20
2018-10-01T11:53:13.792Z,1.10
2018-10-01T11:54:13.778Z,1.10
2018-10-01T11:55:13.739Z,1.30
2018-10-01T11:56:13.719Z,1.30
2018-10-01T11:57:13.768Z,1.10
2018-10-01T11:58:13.678Z,1.50
2018-10-01T11:59:13.676Z,1.10
2018-10-01T12:00:13.638Z,1.20
2018-10-01T12:01:13.630Z,1.10
2018-10-01T12:02:13.597Z,1.80
2018-10-01T12:03:13.622Z,1.20
2018-10-01T12:04:13.683Z,1.40
2018-10-01T12:05:13.541Z,1.50
2018-10-01T12:06:13.514Z,1.40
2018-10-01T12:07:13.495Z,1.10
2018-10-01T12:08:13.481Z,1.50
2018-10-01T12:09:13.619Z,1.40
2018-10-01T12:10:13.617Z,1.20
2018-10-01T12:11:13.416Z,1.10
2018-10-01T12:12:13.396Z,0.90
2018-10-01T12:13:13.391Z,1.00
2018-10-01T12:14:13.349Z,1.00
2018-10-01T12:15:13.369Z,0.90
2018-10-01T12:16:13.345Z,1.10
2018-10-01T12:17:13.293Z,0.90
2018-10-01T12:18:13.274Z,1.20
2018-10-01T12:19:13.249Z,0.90
2018-10-01T12:20:13.228Z,1.10
2018-10-01T12:21:13.289Z,1.10
2018-10-01T12:22:13.297Z,0.90
2018-10-01T12:23:13.162Z,1.00
2018-10-01T12:24:13.150Z,1.30
2018-10-01T12:25:13.130Z,0.90
2018-10-01T12:26:13.101Z,0.90
2018-10-01T12:27:13.128Z,1.70
2018-10-01T12:28:13.064Z,1.40
2018-10-01T12:29:13.131Z,1.30
2018-10-01T12:30:13.016Z,1.30
2018-10-01T12:31:13.000Z,1.30
2018-10-01T12:32:12.983Z,1.50
2018-10-01T12:33:13.025Z,1.40
2018-10-01T12:34:13.133Z,1.60
2018-10-01T12:35:13.018Z,1.10
2018-10-01T12:36:12.892Z,1.40
2018-10-01T12:37:12.882Z,1.60
2018-10-01T12:38:12.853Z,1.10
2018-10-01T12:39:12.888Z,1.90
2018-10-01T12:40:12.812Z,1.70
2018-10-01T12:41:12.791Z,2.00
2018-10-01T12:42:12.770Z,2.10
2018-10-01T12:43:12.758Z,1.40
2018-10-01T12:44:12.730Z,1.90
2018-10-01T12:45:12.740Z,2.00
2018-10-01T12:46:12.693Z,1.60
2018-10-01T12:47:12.668Z,1.70
2018-10-01T12:48:12.685Z,1.50
2018-10-01T12:49:12.631Z,2.20
2018-10-01T12:50:12.608Z,2.10
2018-10-01T12:51:12.688Z,2.00
2018-10-01T12:52:12.581Z,2.10
2018-10-01T12:53:12.547Z,1.90
2018-10-01T12:54:12.528Z,2.30
2018-10-01T12:55:12.510Z,1.80
2018-10-01T12:56:12.491Z,2.20
2018-10-01T12:57:12.481Z,2.00
2018-10-01T12:58:12.447Z,1.80
2018-10-01T12:59:12.428Z,1.70
2018-10-01T13:00:12.409Z,1.80
2018-10-01T13:01:12.384Z,2.30
2018-10-01T13:02:12.367Z,2.10
2018-10-01T13:03:12.356Z,2.70
2018-10-01T13:04:12.324Z,2.60
2018-10-01T13:05:12.369Z,2.40
2018-10-01T13:06:12.332Z,3.00
2018-10-01T13:07:12.266Z,2.60
2018-10-01T13:08:12.243Z,2.50
2018-10-01T13:09:12.232Z,2.40
2018-10-01T13:10:12.199Z,1.90
2018-10-01T13:11:12.182Z,2.00
2018-10-01T13:12:12.182Z,1.90
2018-10-01T13:13:12.143Z,2.50
2018-10-01T13:14:12.120Z,2.30
2018-10-01T13:15:12.104Z,2.20
2018-10-01T13:16:12.080Z,2.70
2018-10-01T13:17:12.063Z,3.00